createdAt,value
2019-06-20T00:00:38.150Z,82.64
2019-06-20T00:03:06.747Z,81.72
2019-06-20T00:05:38.288Z,81.17
2019-06-20T00:08:06.727Z,80.59
2019-06-20T00:10:35.178Z,79.93
2019-06-20T00:13:04.000Z,79.69
2019-06-20T00:15:32.444Z,79.27
2019-06-20T00:18:00.858Z,78.04
2019-06-20T00:20:29.331Z,78.00
2019-06-20T00:22:57.797Z,77.84
2019-06-20T00:25:26.304Z,77.46
2019-06-20T00:27:54.798Z,78.15
2019-06-20T00:30:23.198Z,79.32
2019-06-20T00:32:51.629Z,80.08
2019-06-20T00:35:20.049Z,80.78
2019-06-20T00:37:48.503Z,82.06
2019-06-20T00:40:17.281Z,82.17
2019-06-20T00:42:45.715Z,82.79
2019-06-20T00:45:14.485Z,83.71
2019-06-20T00:47:42.934Z,84.78
2019-06-20T00:50:11.827Z,85.45
2019-06-20T00:52:40.233Z,85.33
2019-06-20T00:55:08.811Z,86.24
2019-06-20T00:57:37.319Z,86.69
2019-06-20T01:00:08.066Z,86.64
2019-06-20T01:02:36.512Z,87.08
2019-06-20T01:05:08.808Z,87.36
2019-06-20T01:07:37.251Z,87.31
2019-06-20T01:10:09.151Z,87.06
2019-06-20T01:12:37.564Z,88.33
2019-06-20T01:15:07.940Z,88.76
2019-06-20T01:17:36.552Z,89.29
2019-06-20T01:20:07.171Z,88.86
2019-06-20T01:22:35.625Z,88.79
2019-06-20T01:25:06.096Z,88.23
2019-06-20T01:27:34.774Z,87.89
2019-06-20T01:30:03.662Z,87.50
2019-06-20T01:32:32.098Z,87.45
2019-06-20T01:35:00.507Z,87.86
2019-06-20T01:37:28.966Z,88.18
2019-06-20T01:39:57.425Z,88.05
2019-06-20T01:42:25.871Z,89.12
2019-06-20T01:44:54.289Z,89.90
2019-06-20T01:47:22.869Z,90.72
2019-06-20T01:49:51.320Z,90.98
2019-06-20T01:52:19.764Z,91.51
2019-06-20T01:54:48.213Z,92.15
2019-06-20T01:57:16.656Z,92.45
2019-06-20T01:59:45.079Z,92.04
2019-06-20T02:02:13.529Z,90.91
2019-06-20T02:04:41.987Z,90.45
2019-06-20T02:07:10.422Z,90.35
2019-06-20T02:09:38.906Z,90.18
2019-06-20T02:12:07.388Z,90.20
2019-06-20T02:14:35.844Z,90.12
2019-06-20T02:17:04.387Z,90.06
2019-06-20T02:19:32.836Z,90.24
2019-06-20T02:22:01.373Z,89.47
2019-06-20T02:24:32.833Z,89.12
2019-06-20T02:27:01.528Z,89.56
2019-06-20T02:29:30.068Z,90.51
2019-06-20T02:31:58.540Z,89.81
2019-06-20T02:34:26.986Z,89.47
2019-06-20T02:36:55.424Z,89.34
2019-06-20T02:39:26.003Z,89.22
2019-06-20T02:41:54.441Z,88.61
2019-06-20T02:44:29.941Z,88.26
2019-06-20T02:46:53.059Z,88.03
2019-06-20T02:49:21.521Z,87.73
2019-06-20T02:51:50.497Z,87.91
2019-06-20T02:54:19.092Z,87.77
2019-06-20T02:56:47.510Z,86.74
2019-06-20T02:59:15.988Z,86.92
2019-06-20T03:01:44.449Z,86.15
2019-06-20T03:04:12.878Z,86.54
2019-06-20T03:06:41.495Z,86.53
2019-06-20T03:09:09.943Z,86.70
2019-06-20T03:11:38.377Z,87.36
2019-06-20T03:14:09.852Z,86.68
2019-06-20T03:16:38.306Z,86.47
2019-06-20T03:19:06.783Z,86.40
2019-06-20T03:21:35.181Z,85.55
2019-06-20T03:24:03.640Z,85.66
2019-06-20T03:26:32.085Z,86.21
2019-06-20T03:29:00.558Z,86.12
2019-06-20T03:31:29.013Z,85.94
2019-06-20T03:33:57.500Z,85.70
2019-06-20T03:36:25.919Z,86.46
2019-06-20T03:38:54.378Z,86.83
2019-06-20T03:41:22.912Z,85.85
2019-06-20T03:43:53.911Z,85.06
2019-06-20T03:46:22.326Z,85.12
2019-06-20T03:48:50.764Z,84.97
2019-06-20T03:51:19.176Z,84.80
2019-06-20T03:53:47.606Z,85.50
2019-06-20T03:56:17.699Z,84.71
2019-06-20T03:58:46.142Z,84.88
2019-06-20T04:01:14.590Z,85.02
2019-06-20T04:03:43.002Z,85.26
2019-06-20T04:06:11.516Z,85.29
2019-06-20T04:08:40.042Z,85.35
2019-06-20T04:11:09.984Z,84.27
2019-06-20T04:13:38.421Z,83.66
2019-06-20T04:16:08.501Z,83.58
2019-06-20T04:18:37.135Z,83.63
2019-06-20T04:21:05.668Z,83.68
2019-06-20T04:23:34.102Z,83.37
2019-06-20T04:26:02.561Z,83.19
2019-06-20T04:28:31.017Z,82.65
2019-06-20T04:31:01.280Z,83.03
2019-06-20T04:33:29.702Z,83.03
2019-06-20T04:35:58.146Z,83.71
2019-06-20T04:38:26.568Z,83.63
2019-06-20T04:40:55.030Z,84.16
2019-06-20T04:43:23.534Z,84.22
2019-06-20T04:45:56.384Z,83.71
2019-06-20T04:48:27.534Z,83.14
2019-06-20T04:50:55.952Z,83.93
2019-06-20T04:53:24.504Z,83.18
2019-06-20T04:55:52.943Z,83.57
2019-06-20T05:01:12.724Z,84.45
2019-06-20T05:03:41.174Z,84.09
2019-06-20T05:06:09.614Z,83.21
2019-06-20T05:08:40.000Z,82.40
2019-06-20T05:11:08.396Z,80.52
2019-06-20T05:13:36.886Z,78.65
2019-06-20T05:16:05.374Z,77.46
2019-06-20T05:18:33.823Z,77.34
2019-06-20T05:21:02.244Z,76.50
2019-06-20T05:23:30.678Z,72.71
2019-06-20T05:25:59.196Z,68.54
2019-06-20T05:28:27.657Z,68.42
2019-06-20T05:30:56.357Z,69.65
2019-06-20T05:33:28.803Z,72.02
2019-06-20T05:35:57.273Z,73.52
2019-06-20T05:38:25.699Z,75.75
2019-06-20T05:40:54.182Z,77.61
2019-06-20T05:43:22.573Z,77.65
2019-06-20T05:45:51.050Z,77.77
2019-06-20T05:48:19.488Z,77.16
2019-06-20T05:50:48.635Z,78.33
2019-06-20T05:53:17.135Z,78.94
2019-06-20T05:55:45.624Z,79.00
2019-06-20T05:58:14.036Z,79.40
2019-06-20T06:00:42.521Z,78.81
2019-06-20T06:03:13.661Z,79.12
2019-06-20T06:05:41.210Z,79.06
2019-06-20T06:08:09.685Z,79.26
2019-06-20T06:10:38.086Z,78.90
2019-06-20T06:13:06.518Z,79.40
2019-06-20T06:15:35.015Z,80.59
2019-06-20T06:18:03.446Z,81.52
2019-06-20T06:20:31.893Z,82.04
2019-06-20T06:23:00.478Z,82.61
2019-06-20T06:25:29.073Z,82.17
2019-06-20T06:28:00.334Z,80.65
2019-06-20T06:30:30.313Z,80.42
2019-06-20T06:33:01.644Z,79.89
2019-06-20T06:35:30.465Z,79.96
2019-06-20T06:38:01.720Z,77.52
2019-06-20T06:40:30.647Z,73.91
2019-06-20T06:42:59.152Z,71.26
2019-06-20T06:45:29.186Z,69.62
2019-06-20T06:47:58.669Z,66.91
2019-06-20T06:50:30.432Z,66.62
2019-06-20T06:52:58.931Z,68.27
2019-06-20T06:55:27.920Z,70.22
2019-06-20T06:57:59.303Z,71.20
2019-06-20T07:00:29.177Z,73.10
2019-06-20T07:02:57.611Z,74.13
2019-06-20T07:05:27.483Z,74.82
2019-06-20T07:07:59.620Z,74.03
2019-06-20T07:10:28.339Z,74.83
2019-06-20T07:12:56.819Z,74.47
2019-06-20T07:15:26.996Z,75.53
2019-06-20T07:17:55.576Z,75.77
2019-06-20T07:20:28.661Z,75.98
2019-06-20T07:22:58.702Z,76.49
2019-06-20T07:25:41.344Z,76.76
2019-06-20T07:28:13.128Z,77.00
2019-06-20T07:30:41.957Z,77.20
2019-06-20T07:33:17.950Z,78.77
2019-06-20T07:35:46.626Z,78.57
2019-06-20T07:38:22.943Z,77.62
2019-06-20T07:40:56.483Z,77.41
2019-06-20T07:43:31.465Z,77.18
2019-06-20T07:46:03.031Z,76.81
2019-06-20T07:48:32.232Z,76.32
2019-06-20T07:51:01.003Z,76.27
2019-06-20T07:53:34.011Z,76.38
2019-06-20T07:56:02.609Z,75.72
2019-06-20T07:58:32.773Z,76.30
2019-06-20T08:01:12.896Z,74.84
2019-06-20T08:03:36.953Z,74.39
2019-06-20T08:06:05.438Z,72.74
2019-06-20T08:08:35.670Z,70.10
2019-06-20T08:11:04.384Z,69.96
2019-06-20T08:13:32.993Z,68.76
2019-06-20T08:16:03.791Z,69.96
2019-06-20T08:18:31.698Z,67.13
2019-06-20T08:21:00.128Z,66.02
2019-06-20T08:23:28.561Z,65.50
2019-06-20T08:25:57.526Z,65.24
2019-06-20T08:28:27.824Z,68.08
2019-06-20T08:30:57.374Z,65.78
2019-06-20T08:33:26.823Z,64.92
2019-06-20T08:35:56.966Z,64.78
2019-06-20T08:38:25.474Z,65.79
2019-06-20T08:40:54.003Z,65.56
2019-06-20T08:43:22.423Z,64.45
2019-06-20T08:45:50.857Z,62.67
2019-06-20T08:48:19.326Z,62.05
2019-06-20T08:50:47.738Z,61.49
2019-06-20T08:53:16.318Z,60.81
2019-06-20T08:55:44.796Z,62.03
2019-06-20T08:58:13.236Z,62.13
2019-06-20T09:00:41.899Z,62.41
2019-06-20T09:03:10.645Z,60.11
2019-06-20T09:05:39.066Z,59.02
2019-06-20T09:08:11.215Z,58.64
2019-06-20T09:10:40.187Z,55.65
2019-06-20T09:13:09.882Z,54.03
2019-06-20T09:15:38.532Z,55.19
2019-06-20T09:18:07.780Z,55.05
2019-06-20T09:20:36.722Z,55.94
2019-06-20T09:23:05.750Z,57.10
2019-06-20T09:25:34.399Z,56.71
2019-06-20T09:28:03.226Z,57.08
2019-06-20T09:30:31.882Z,57.33
2019-06-20T09:33:00.293Z,57.87
2019-06-20T09:35:28.719Z,58.50
2019-06-20T09:37:57.423Z,59.82
2019-06-20T09:40:26.022Z,58.71
2019-06-20T09:42:54.553Z,54.36
2019-06-20T09:45:23.548Z,55.82
2019-06-20T09:47:52.236Z,55.10
2019-06-20T09:50:21.329Z,54.56
2019-06-20T09:52:51.387Z,53.65
2019-06-20T09:55:20.163Z,51.96
2019-06-20T09:57:50.257Z,52.63
2019-06-20T10:00:21.838Z,51.82
2019-06-20T10:02:51.793Z,52.53
2019-06-20T10:05:20.681Z,51.71
2019-06-20T10:07:50.273Z,51.54
2019-06-20T10:10:19.223Z,51.55
2019-06-20T10:12:47.959Z,50.27
2019-06-20T10:15:25.459Z,51.05
2019-06-20T10:17:54.509Z,50.33
2019-06-20T10:20:23.838Z,50.71
2019-06-20T10:22:53.124Z,50.00
2019-06-20T10:25:21.848Z,49.94
2019-06-20T10:27:51.397Z,49.59
2019-06-20T10:30:22.131Z,51.10
2019-06-20T10:32:51.097Z,52.07
2019-06-20T10:35:20.048Z,51.67
2019-06-20T10:37:48.628Z,52.76
2019-06-20T10:40:18.693Z,53.55
2019-06-20T10:42:48.089Z,52.41
2019-06-20T10:45:19.271Z,52.37
2019-06-20T10:47:48.979Z,53.23
2019-06-20T10:50:19.323Z,51.53
2019-06-20T10:52:48.169Z,50.71
2019-06-20T10:55:17.511Z,48.13
2019-06-20T10:57:46.773Z,50.19
2019-06-20T11:00:29.707Z,49.20
2019-06-20T11:02:47.061Z,47.88
2019-06-20T11:05:17.253Z,47.27
2019-06-20T11:07:45.762Z,49.20
2019-06-20T11:10:16.284Z,48.78
2019-06-20T11:12:52.239Z,49.32
2019-06-20T11:15:15.693Z,49.33
2019-06-20T11:17:44.314Z,50.95
2019-06-20T11:20:13.282Z,51.09
2019-06-20T11:22:43.342Z,50.02
2019-06-20T11:25:18.974Z,48.62
2019-06-20T11:27:47.317Z,49.57
2019-06-20T11:30:24.350Z,50.08
2019-06-20T11:32:52.780Z,50.62
2019-06-20T11:35:21.207Z,50.42
2019-06-20T11:37:49.637Z,50.68
2019-06-20T11:40:18.548Z,50.56
2019-06-20T11:42:47.067Z,50.42
2019-06-20T11:45:17.480Z,50.88
2019-06-20T11:47:47.321Z,50.49
2019-06-20T11:50:16.932Z,51.01
2019-06-20T11:52:45.993Z,50.67
2019-06-20T11:55:15.729Z,49.43
2019-06-20T11:57:44.327Z,48.32
2019-06-20T12:00:13.676Z,48.83
2019-06-20T12:02:43.956Z,50.11
2019-06-20T12:05:13.805Z,50.55
2019-06-20T12:07:43.701Z,49.84
2019-06-20T12:10:14.339Z,48.36
2019-06-20T12:12:42.783Z,48.00
2019-06-20T12:15:11.946Z,48.39
2019-06-20T12:17:41.721Z,47.19
2019-06-20T12:20:12.610Z,48.59
2019-06-20T12:22:41.729Z,47.55
2019-06-20T12:25:13.132Z,47.39
2019-06-20T12:27:42.962Z,45.80
2019-06-20T12:30:14.033Z,46.10
2019-06-20T12:32:42.594Z,46.54
2019-06-20T12:35:11.741Z,46.18
2019-06-20T12:37:40.580Z,46.01
2019-06-20T12:40:11.616Z,44.73
2019-06-20T12:42:41.803Z,44.43
2019-06-20T12:45:11.888Z,44.13
2019-06-20T12:47:41.790Z,45.41
2019-06-20T12:50:10.772Z,44.76
2019-06-20T12:52:42.628Z,45.01
2019-06-20T12:55:12.219Z,45.26
2019-06-20T12:57:42.136Z,47.47
2019-06-20T13:00:12.370Z,45.47
2019-06-20T13:02:41.949Z,46.11
2019-06-20T13:05:11.650Z,46.32
2019-06-20T13:07:40.699Z,44.48
2019-06-20T13:10:11.174Z,43.71
2019-06-20T13:12:42.696Z,44.07
2019-06-20T13:15:13.151Z,42.64
2019-06-20T13:17:43.619Z,43.20
2019-06-20T13:20:16.050Z,41.99
2019-06-20T13:22:49.347Z,40.98
2019-06-20T13:25:17.437Z,40.47
2019-06-20T13:27:45.997Z,41.16
2019-06-20T13:30:14.914Z,40.12
2019-06-20T13:32:45.229Z,40.60
2019-06-20T13:35:14.386Z,41.36
2019-06-20T13:37:43.483Z,40.53
2019-06-20T13:40:13.547Z,41.81
2019-06-20T13:42:43.947Z,41.15
2019-06-20T13:45:15.274Z,41.28
2019-06-20T13:47:43.724Z,41.92
2019-06-20T13:50:12.297Z,42.11
2019-06-20T13:52:43.544Z,41.77
2019-06-20T13:55:10.938Z,42.42
2019-06-20T13:57:41.218Z,41.45
2019-06-20T14:00:10.893Z,41.38
2019-06-20T14:02:41.041Z,41.93
2019-06-20T14:05:10.348Z,42.07
2019-06-20T14:07:48.316Z,43.10
2019-06-20T14:10:19.438Z,43.90
2019-06-20T14:12:48.772Z,43.43
2019-06-20T14:15:18.715Z,42.43
2019-06-20T14:17:47.487Z,41.67
2019-06-20T14:20:18.545Z,43.29
2019-06-20T14:22:46.947Z,43.05
2019-06-20T14:25:15.780Z,43.92
2019-06-20T14:27:46.041Z,43.70
2019-06-20T14:30:16.705Z,43.86
2019-06-20T14:32:47.487Z,42.56
2019-06-20T14:35:16.081Z,41.86
2019-06-20T14:37:46.100Z,41.04
2019-06-20T14:40:15.900Z,41.43
2019-06-20T14:42:46.004Z,41.53
2019-06-20T14:45:15.188Z,42.29
2019-06-20T14:47:43.845Z,42.23
2019-06-20T14:50:20.346Z,41.97
2019-06-20T14:52:50.032Z,43.26
2019-06-20T14:55:19.278Z,41.81
2019-06-20T14:57:48.520Z,41.56
2019-06-20T15:00:18.616Z,40.95
2019-06-20T15:02:48.019Z,41.48
2019-06-20T15:05:24.524Z,41.07
2019-06-20T15:07:57.358Z,41.67
2019-06-20T15:10:25.736Z,42.78
2019-06-20T15:13:04.482Z,41.49
2019-06-20T15:15:32.885Z,40.91
2019-06-20T15:18:01.312Z,39.53
2019-06-20T15:20:29.736Z,39.83
2019-06-20T15:22:58.154Z,39.38
2019-06-20T15:25:26.694Z,40.14
2019-06-20T15:27:55.793Z,41.89
2019-06-20T15:30:25.547Z,42.23
2019-06-20T15:33:05.798Z,43.91
2019-06-20T15:35:31.162Z,44.23
2019-06-20T15:37:59.641Z,43.83
2019-06-20T15:40:36.892Z,45.30
2019-06-20T15:43:05.341Z,43.25
2019-06-20T15:45:33.759Z,44.28
2019-06-20T15:48:02.220Z,44.53
2019-06-20T15:50:30.635Z,43.61
2019-06-20T15:52:59.062Z,43.11
2019-06-20T15:55:27.475Z,42.91
2019-06-20T15:57:56.073Z,43.54
2019-06-20T16:00:25.561Z,43.08
2019-06-20T16:03:05.928Z,41.66
2019-06-20T16:05:24.109Z,42.16
2019-06-20T16:07:52.558Z,43.11
2019-06-20T16:10:29.673Z,43.64
2019-06-20T16:13:10.086Z,44.58
2019-06-20T16:15:38.496Z,44.39
2019-06-20T16:18:10.012Z,43.86
2019-06-20T16:20:38.446Z,44.32
2019-06-20T16:23:06.891Z,43.21
2019-06-20T16:25:35.325Z,43.79
2019-06-20T16:28:03.787Z,44.39
2019-06-20T16:30:33.911Z,43.41
2019-06-20T16:33:02.444Z,42.96
2019-06-20T16:35:30.878Z,43.58
2019-06-20T16:38:00.860Z,44.09
2019-06-20T16:40:32.309Z,43.64
2019-06-20T16:43:00.741Z,43.81
2019-06-20T16:45:31.295Z,44.67
2019-06-20T16:48:01.316Z,44.09
2019-06-20T16:50:34.940Z,44.17
2019-06-20T16:53:03.248Z,44.87
2019-06-20T16:55:33.613Z,44.19
2019-06-20T16:58:05.596Z,44.11
2019-06-20T17:00:40.073Z,44.04
2019-06-20T17:03:08.653Z,44.61
2019-06-20T17:05:38.637Z,45.54
2019-06-20T17:08:07.112Z,45.48
2019-06-20T17:10:39.440Z,45.18
2019-06-20T17:13:14.021Z,45.35
2019-06-20T17:15:42.449Z,44.32
2019-06-20T17:18:10.856Z,43.00
2019-06-20T17:20:39.347Z,46.82
2019-06-20T17:23:11.888Z,47.43
2019-06-20T17:25:40.327Z,48.47
2019-06-20T17:28:14.528Z,48.49
2019-06-20T17:30:42.998Z,48.83
2019-06-20T17:33:11.446Z,48.88
2019-06-20T17:35:39.867Z,47.16
2019-06-20T17:38:08.335Z,46.80
2019-06-20T17:40:36.922Z,45.85
2019-06-20T17:43:05.373Z,46.40
2019-06-20T17:45:42.461Z,47.23
2019-06-20T17:48:16.883Z,45.67
2019-06-20T17:50:45.303Z,45.65
2019-06-20T17:53:13.736Z,45.48
2019-06-20T17:55:42.582Z,47.59
2019-06-20T17:58:19.417Z,47.73
2019-06-20T18:00:45.186Z,47.60
2019-06-20T18:03:13.659Z,46.14
2019-06-20T18:05:42.442Z,46.07
2019-06-20T18:08:15.057Z,46.32
2019-06-20T18:10:41.017Z,49.11
2019-06-20T18:13:09.450Z,50.70
2019-06-20T18:15:37.872Z,51.20
2019-06-20T18:18:06.334Z,51.48
2019-06-20T18:20:34.732Z,51.99
2019-06-20T18:23:03.209Z,52.69
2019-06-20T18:25:31.900Z,53.19
2019-06-20T18:28:01.271Z,54.18
2019-06-20T18:30:41.359Z,54.97
2019-06-20T18:33:11.493Z,57.07
2019-06-20T18:35:39.876Z,57.76
2019-06-20T18:38:08.298Z,57.40
2019-06-20T18:40:36.943Z,57.72
2019-06-20T18:43:05.474Z,58.03
2019-06-20T18:45:33.963Z,58.49
2019-06-20T18:48:05.504Z,59.04
2019-06-20T18:50:34.185Z,59.25
2019-06-20T18:53:02.664Z,59.47
2019-06-20T18:55:31.130Z,59.55
2019-06-20T18:57:59.628Z,59.92
2019-06-20T19:00:34.648Z,59.28
2019-06-20T19:02:58.997Z,58.82
2019-06-20T19:05:31.884Z,59.16
2019-06-20T19:08:00.293Z,58.51
2019-06-20T19:10:29.043Z,57.77
2019-06-20T19:12:57.620Z,57.43
2019-06-20T19:15:29.351Z,57.30
2019-06-20T19:17:57.904Z,58.02
2019-06-20T19:20:29.826Z,57.79
2019-06-20T19:22:58.645Z,57.94
2019-06-20T19:25:27.147Z,57.84
2019-06-20T19:27:55.669Z,57.83
2019-06-20T19:30:41.922Z,57.62
2019-06-20T19:33:11.301Z,57.92
2019-06-20T19:35:39.907Z,57.98
2019-06-20T19:38:08.330Z,58.50
2019-06-20T19:40:40.097Z,58.21
2019-06-20T19:43:08.578Z,57.88
2019-06-20T19:45:37.381Z,57.93
2019-06-20T19:48:06.180Z,57.58
2019-06-20T19:50:34.686Z,57.35
2019-06-20T19:53:03.222Z,57.59
2019-06-20T19:55:31.943Z,57.76
2019-06-20T19:58:00.361Z,55.16
2019-06-20T20:00:29.067Z,53.91
2019-06-20T20:02:57.824Z,53.64
2019-06-20T20:05:26.321Z,53.69
2019-06-20T20:07:58.469Z,56.52
2019-06-20T20:10:47.954Z,59.73
2019-06-20T20:13:17.518Z,61.33
2019-06-20T20:15:46.578Z,61.57
2019-06-20T20:18:16.036Z,63.20
2019-06-20T20:20:47.534Z,64.28
2019-06-20T20:23:16.195Z,65.29
2019-06-20T20:25:44.802Z,65.67
2019-06-20T20:28:13.268Z,65.73
2019-06-20T20:30:41.857Z,65.72
2019-06-20T20:33:10.358Z,66.90
2019-06-20T20:35:41.035Z,67.17
2019-06-20T20:38:09.533Z,67.45
2019-06-20T20:40:37.956Z,67.24
2019-06-20T20:43:06.715Z,67.35
2019-06-20T20:45:35.234Z,66.55
2019-06-20T20:48:03.669Z,65.75
2019-06-20T20:50:40.822Z,65.50
2019-06-20T20:53:09.225Z,65.36
2019-06-20T20:55:37.644Z,65.38
2019-06-20T20:58:06.061Z,66.04
2019-06-20T21:00:40.641Z,66.65
2019-06-20T21:03:09.153Z,68.06
2019-06-20T21:05:50.705Z,68.62
2019-06-20T21:08:07.779Z,68.22
2019-06-20T21:10:36.223Z,68.79
2019-06-20T21:13:04.702Z,69.07
2019-06-20T21:15:33.113Z,68.83
2019-06-20T21:18:01.532Z,69.28
2019-06-20T21:20:29.978Z,68.59
2019-06-20T21:22:58.413Z,68.08
2019-06-20T21:25:26.903Z,68.30
2019-06-20T21:27:55.297Z,67.87
2019-06-20T21:30:24.081Z,68.00
2019-06-20T21:32:52.508Z,68.74
2019-06-20T21:35:20.943Z,68.16
2019-06-20T21:37:49.366Z,68.23
2019-06-20T21:40:18.753Z,68.61
2019-06-20T21:42:47.179Z,68.58
2019-06-20T21:45:16.773Z,68.72
2019-06-20T21:47:45.224Z,69.27
2019-06-20T21:50:14.993Z,70.17
2019-06-20T21:52:43.403Z,71.01
2019-06-20T21:55:12.179Z,71.44
2019-06-20T21:57:40.598Z,72.12
2019-06-20T22:00:25.342Z,72.32
2019-06-20T22:02:53.929Z,71.97
2019-06-20T22:05:22.533Z,72.96
2019-06-20T22:07:51.037Z,73.28
2019-06-20T22:10:19.782Z,73.31
2019-06-20T22:12:48.204Z,73.80
2019-06-20T22:15:16.791Z,73.70
2019-06-20T22:17:45.230Z,74.21
2019-06-20T22:20:15.180Z,74.37
2019-06-20T22:22:43.646Z,75.56
2019-06-20T22:25:12.605Z,75.17
2019-06-20T22:27:41.097Z,75.17
2019-06-20T22:30:13.714Z,75.89
2019-06-20T22:32:42.177Z,75.44
2019-06-20T22:35:11.729Z,75.87
2019-06-20T22:37:41.607Z,76.81
2019-06-20T22:40:12.571Z,77.67
2019-06-20T22:42:41.009Z,78.08
2019-06-20T22:45:10.956Z,78.35
2019-06-20T22:47:39.378Z,78.54
2019-06-20T22:50:08.932Z,78.55
2019-06-20T22:52:38.308Z,78.81
2019-06-20T22:55:06.947Z,78.50
2019-06-20T22:57:35.388Z,78.59
2019-06-20T23:00:07.188Z,79.28
2019-06-20T23:02:35.637Z,79.24
2019-06-20T23:05:05.521Z,79.24
2019-06-20T23:07:33.973Z,79.58
2019-06-20T23:10:25.026Z,79.96
2019-06-20T23:12:55.173Z,80.12
2019-06-20T23:15:23.769Z,80.24
2019-06-20T23:17:52.285Z,80.11
2019-06-20T23:20:20.964Z,79.92
2019-06-20T23:22:49.374Z,80.02
2019-06-20T23:25:18.155Z,80.09
2019-06-20T23:27:46.621Z,80.17
2019-06-20T23:30:15.885Z,79.77
2019-06-20T23:32:44.462Z,79.46
2019-06-20T23:35:12.966Z,79.22
2019-06-20T23:37:41.388Z,79.24
2019-06-20T23:40:11.087Z,79.13
2019-06-20T23:42:39.481Z,78.05
2019-06-20T23:45:09.458Z,76.97
2019-06-20T23:47:37.949Z,76.78
2019-06-20T23:50:07.228Z,75.85
2019-06-20T23:52:45.877Z,75.31
2019-06-20T23:55:14.319Z,74.84
2019-06-20T23:57:42.721Z,74.37
